Time;durP1;ratioP1;P1;durP2;ratioP2;P2;SDS_P1;SDS_P2;PMS_P1;PMS_P2;Temp;Humidity;BMP_temperature;BMP_pressure;BME280_temperature;BME280_humidity;BME280_pressure;Samples;Min_cycle;Max_cycle;Signal;HPM_P1;HPM_P2
2022/05/27 00:00:04;;;;;;;5.17;3.17;;;19.80;99.90;;;;;;6267076;22;20205;-93
2022/05/27 00:02:36;;;;;;;4.70;3.33;;;19.90;99.90;;;;;;6266672;23;20245;-93
2022/05/27 00:05:09;;;;;;;4.87;3.47;;;19.90;99.90;;;;;;6239707;23;20234;-91
2022/05/27 00:07:44;;;;;;;5.00;3.20;;;19.90;99.90;;;;;;6268278;23;20171;-92
2022/05/27 00:10:18;;;;;;;5.37;3.57;;;20.00;99.90;;;;;;6266118;22;20175;-92
2022/05/27 00:12:57;;;;;;;5.13;3.80;;;20.00;99.90;;;;;;6268116;23;20155;-92
2022/05/27 00:15:29;;;;;;;6.90;3.37;;;20.00;99.90;;;;;;6266908;23;20188;-92
2022/05/27 00:18:02;;;;;;;9.67;6.57;;;20.00;99.90;;;;;;6268146;22;20175;-91
2022/05/27 00:20:35;;;;;;;9.60;6.23;;;20.00;99.90;;;;;;6266556;23;20171;-92
2022/05/27 00:23:16;;;;;;;5.70;3.43;;;20.10;99.90;;;;;;6267387;23;20179;-92
2022/05/27 00:25:47;;;;;;;4.07;3.07;;;20.10;99.90;;;;;;6266650;23;20241;-92
2022/05/27 00:28:21;;;;;;;4.20;3.10;;;20.30;99.90;;;;;;6267265;23;20189;-94
2022/05/27 00:33:51;;;;;;;6.30;3.00;;;20.30;99.90;;;;;;6267937;23;20175;-93
2022/05/27 00:36:26;;;;;;;3.80;2.73;;;20.30;99.90;;;;;;6259375;22;20175;-93
2022/05/27 00:39:09;;;;;;;3.47;2.73;;;20.30;99.90;;;;;;6262559;23;20237;-94
2022/05/27 00:41:48;;;;;;;4.60;2.93;;;20.20;99.90;;;;;;6263299;23;20171;-94
2022/05/27 00:44:22;;;;;;;4.97;2.80;;;20.10;99.90;;;;;;6257450;23;20208;-92
2022/05/27 00:46:54;;;;;;;8.37;3.17;;;20.20;99.90;;;;;;6225131;23;20190;-93
2022/05/27 00:49:30;;;;;;;5.73;2.80;;;20.10;99.90;;;;;;6257821;22;20176;-94
2022/05/27 00:52:06;;;;;;;16.90;3.60;;;20.00;99.90;;;;;;6256468;23;20251;-91
2022/05/27 00:54:40;;;;;;;6.67;3.83;;;19.80;99.90;;;;;;6263308;23;20175;-92
2022/05/27 00:57:20;;;;;;;2.83;2.53;;;19.70;99.90;;;;;;6261161;23;20176;-90
2022/05/27 00:59:58;;;;;;;7.30;2.70;;;19.60;99.90;;;;;;6263083;22;20582;-92
2022/05/27 01:02:31;;;;;;;4.87;2.57;;;19.50;99.90;;;;;;6262704;22;20171;-92
2022/05/27 01:05:03;;;;;;;3.63;3.07;;;19.40;99.90;;;;;;6270559;22;20525;-91
2022/05/27 01:07:35;;;;;;;5.67;2.73;;;19.30;99.90;;;;;;6271061;22;20222;-92
2022/05/27 01:10:10;;;;;;;4.00;2.60;;;19.30;99.90;;;;;;6269431;22;20172;-91
2022/05/27 01:13:09;;;;;;;4.57;2.70;;;19.20;99.90;;;;;;6264632;23;20226;-91
2022/05/27 01:15:53;;;;;;;4.20;2.83;;;19.20;99.90;;;;;;6264202;22;20203;-91
2022/05/27 01:21:41;;;;;;;3.97;2.70;;;19.20;99.90;;;;;;6238320;23;20494;-91
2022/05/27 01:24:42;;;;;;;4.67;2.63;;;19.20;99.90;;;;;;6258476;23;20199;-91
2022/05/27 01:27:35;;;;;;;4.13;2.80;;;19.20;99.90;;;;;;6195823;22;20175;-91
2022/05/27 01:30:27;;;;;;;3.40;2.93;;;19.20;99.90;;;;;;6252524;23;20179;-92
2022/05/27 01:33:25;;;;;;;10.70;2.77;;;19.10;99.90;;;;;;6228960;23;20476;-91
2022/05/27 01:36:05;;;;;;;52.80;5.33;;;19.10;99.90;;;;;;6260977;23;20175;-92
2022/05/27 01:38:43;;;;;;;3.43;2.73;;;19.00;99.90;;;;;;6255973;23;20197;-92
2022/05/27 01:41:25;;;;;;;5.83;2.80;;;18.90;99.90;;;;;;6239192;23;20152;-93
2022/05/27 01:44:01;;;;;;;5.17;3.17;;;18.70;99.90;;;;;;6261591;23;20200;-90
2022/05/27 01:46:45;;;;;;;8.20;4.43;;;18.70;99.90;;;;;;6258970;22;20559;-91
2022/05/27 01:49:31;;;;;;;4.33;3.37;;;18.60;99.90;;;;;;6261483;23;20239;-90
2022/05/27 01:52:09;;;;;;;6.70;3.90;;;18.50;99.90;;;;;;6255274;22;20204;-92
2022/05/27 01:54:51;;;;;;;9.00;4.27;;;18.50;99.90;;;;;;6260075;23;20185;-92
2022/05/27 01:57:27;;;;;;;4.93;3.47;;;18.10;99.90;;;;;;6255830;23;20536;-93
2022/05/27 02:00:08;;;;;;;6.13;3.43;;;18.00;99.90;;;;;;6259874;23;20211;-92
2022/05/27 02:08:23;;;;;;;4.27;3.10;;;17.80;99.90;;;;;;6190099;23;20279;-91
2022/05/27 02:14:01;;;;;;;3.50;3.03;;;17.40;99.90;;;;;;6233549;23;20180;-91
2022/05/27 02:16:36;;;;;;;3.70;3.40;;;17.20;99.90;;;;;;6211421;23;20176;-91
2022/05/27 02:19:15;;;;;;;4.20;3.80;;;17.00;99.90;;;;;;6235924;23;20207;-91
2022/05/27 02:21:50;;;;;;;4.77;3.43;;;17.10;99.90;;;;;;6234726;23;20192;-90
2022/05/27 02:24:26;;;;;;;5.40;4.00;;;17.20;99.90;;;;;;6235144;23;20176;-91
2022/05/27 02:27:03;;;;;;;4.00;3.60;;;17.10;99.90;;;;;;6236399;23;20172;-91
2022/05/27 02:29:36;;;;;;;4.77;3.83;;;17.00;99.90;;;;;;6235682;23;20171;-92
2022/05/27 02:32:12;;;;;;;3.93;3.50;;;17.00;99.90;;;;;;6236115;23;20183;-91
2022/05/27 02:35:10;;;;;;;4.87;3.17;;;17.00;99.90;;;;;;6236105;23;20179;-91
2022/05/27 02:37:45;;;;;;;5.60;3.20;;;16.90;99.90;;;;;;6209180;23;20746;-91
2022/05/27 02:40:19;;;;;;;5.37;3.40;;;16.90;99.90;;;;;;6233065;23;20222;-91
2022/05/27 02:43:07;;;;;;;4.23;3.27;;;16.80;99.90;;;;;;6252611;23;20203;-92
2022/05/27 02:45:49;;;;;;;4.27;3.60;;;16.70;99.90;;;;;;6262637;22;20196;-91
2022/05/27 02:48:32;;;;;;;4.57;3.40;;;16.70;99.90;;;;;;6266039;23;20563;-91
2022/05/27 02:51:19;;;;;;;3.93;3.63;;;16.80;99.90;;;;;;6263433;23;20186;-91
2022/05/27 02:53:59;;;;;;;7.07;4.47;;;16.80;99.90;;;;;;6264863;23;20206;-92
2022/05/27 02:56:38;;;;;;;7.07;4.53;;;16.70;99.90;;;;;;6266834;23;20164;-92
2022/05/27 02:59:12;;;;;;;6.70;5.13;;;16.60;99.90;;;;;;6264438;23;20175;-91
2022/05/27 03:01:44;;;;;;;6.90;4.70;;;16.60;99.90;;;;;;6264182;23;20171;-91
2022/05/27 03:04:19;;;;;;;5.87;4.37;;;16.60;99.90;;;;;;6241418;22;20219;-91
2022/05/27 03:07:07;;;;;;;10.37;5.30;;;16.60;99.90;;;;;;6264733;23;20190;-91
2022/05/27 03:09:52;;;;;;;6.20;4.50;;;16.50;99.90;;;;;;6263941;23;20215;-91
2022/05/27 03:12:39;;;;;;;9.37;4.67;;;16.40;99.90;;;;;;6261547;22;20210;-92
2022/05/27 03:15:24;;;;;;;6.73;4.43;;;16.40;99.90;;;;;;6259018;23;20602;-90
2022/05/27 03:18:07;;;;;;;5.13;4.60;;;16.20;99.90;;;;;;6262894;23;20174;-90
2022/05/27 03:20:50;;;;;;;5.17;4.67;;;16.20;99.90;;;;;;6263571;23;20180;-91
2022/05/27 03:23:48;;;;;;;5.70;4.50;;;16.20;99.90;;;;;;6265355;23;20179;-91
2022/05/27 03:26:26;;;;;;;7.53;5.37;;;16.30;99.90;;;;;;6267644;23;20203;-91
2022/05/27 03:29:10;;;;;;;6.67;5.20;;;16.30;99.90;;;;;;6265140;23;20175;-90
2022/05/27 03:31:48;;;;;;;6.77;5.07;;;16.30;99.90;;;;;;6264788;23;20179;-90
2022/05/27 03:34:27;;;;;;;8.53;5.60;;;16.20;99.90;;;;;;6266771;23;20175;-90
2022/05/27 03:39:43;;;;;;;8.13;5.37;;;16.30;99.90;;;;;;6260150;22;20210;-91
2022/05/27 03:42:15;;;;;;;5.67;5.10;;;16.30;99.90;;;;;;6250799;23;20195;-91
2022/05/27 03:44:52;;;;;;;7.03;5.37;;;16.30;99.90;;;;;;6261573;23;20233;-91
2022/05/27 03:47:25;;;;;;;6.50;4.80;;;16.40;99.90;;;;;;6255839;23;20250;-92
2022/05/27 03:49:59;;;;;;;7.23;4.60;;;16.30;99.90;;;;;;6264460;23;20171;-92
2022/05/27 03:52:35;;;;;;;8.73;5.33;;;16.30;99.90;;;;;;6260936;23;20175;-91
2022/05/27 03:55:10;;;;;;;7.73;5.23;;;16.30;99.90;;;;;;6251888;23;20640;-92
2022/05/27 03:57:41;;;;;;;7.50;5.10;;;16.30;99.90;;;;;;6251801;23;20564;-92
2022/05/27 04:00:17;;;;;;;7.93;5.83;;;16.10;99.90;;;;;;6258441;23;20509;-91
2022/05/27 04:02:48;;;;;;;5.90;5.17;;;16.20;99.90;;;;;;6251962;23;20183;-92
2022/05/27 04:05:25;;;;;;;9.73;6.23;;;16.10;99.90;;;;;;6253122;23;20238;-92
2022/05/27 04:07:57;;;;;;;6.67;5.80;;;16.10;99.90;;;;;;6253835;23;20183;-92
2022/05/27 04:10:34;;;;;;;6.00;4.07;;;16.10;99.90;;;;;;6250108;23;20187;-91
2022/05/27 04:13:05;;;;;;;5.17;4.00;;;16.00;99.90;;;;;;6250365;23;20190;-92
2022/05/27 04:15:37;;;;;;;5.40;4.20;;;16.00;99.90;;;;;;6256965;23;20175;-91
2022/05/27 04:18:10;;;;;;;5.23;4.10;;;15.90;99.90;;;;;;6258688;23;20164;-92
2022/05/27 04:20:42;;;;;;;4.90;4.20;;;15.90;99.90;;;;;;6264616;23;20176;-92
2022/05/27 04:23:17;;;;;;;4.60;4.10;;;15.80;99.90;;;;;;6269840;23;20672;-91
2022/05/27 04:25:52;;;;;;;5.17;4.00;;;15.80;99.90;;;;;;6267981;22;20184;-91
2022/05/27 04:28:33;;;;;;;6.43;4.30;;;15.80;99.90;;;;;;6258513;23;20186;-91
2022/05/27 04:31:07;;;;;;;4.93;4.10;;;15.70;99.90;;;;;;6256654;23;20224;-91
2022/05/27 04:33:38;;;;;;;6.73;3.97;;;15.70;99.90;;;;;;6254889;23;20179;-91
2022/05/27 04:36:11;;;;;;;4.23;3.83;;;15.70;99.90;;;;;;6225777;23;20175;-91
2022/05/27 04:38:44;;;;;;;4.50;3.63;;;15.70;99.90;;;;;;6255398;22;20194;-91
2022/05/27 04:41:21;;;;;;;4.47;3.73;;;15.70;99.90;;;;;;6256611;23;20266;-91
2022/05/27 04:43:52;;;;;;;4.40;3.80;;;15.70;99.90;;;;;;6250378;23;20175;-92
2022/05/27 04:46:23;;;;;;;3.87;3.53;;;15.70;99.90;;;;;;6255261;22;20199;-91
2022/05/27 04:48:56;;;;;;;4.00;3.40;;;15.70;99.90;;;;;;6255151;23;20175;-90
2022/05/27 04:51:28;;;;;;;4.63;3.33;;;15.70;99.90;;;;;;6252361;23;20202;-91
2022/05/27 04:54:01;;;;;;;4.33;3.93;;;15.70;99.90;;;;;;6254168;23;20163;-91
2022/05/27 04:56:35;;;;;;;5.67;4.00;;;15.70;99.90;;;;;;6252017;23;20179;-91
2022/05/27 04:59:11;;;;;;;4.00;3.60;;;15.70;99.90;;;;;;6251682;23;20179;-90
2022/05/27 05:01:42;;;;;;;5.27;3.73;;;15.70;99.90;;;;;;6252385;23;20179;-92
2022/05/27 05:04:13;;;;;;;6.00;3.93;;;15.60;99.90;;;;;;6227178;23;20241;-91
2022/05/27 05:06:45;;;;;;;5.00;3.77;;;15.60;99.90;;;;;;6258221;23;20259;-91
2022/05/27 05:09:17;;;;;;;6.47;4.00;;;15.60;99.90;;;;;;6255760;23;20188;-90
2022/05/27 05:11:54;;;;;;;5.03;3.90;;;15.60;99.90;;;;;;6265920;22;20198;-91
2022/05/27 05:14:25;;;;;;;6.57;4.27;;;15.60;99.90;;;;;;6261180;22;20210;-90
2022/05/27 05:16:57;;;;;;;6.00;4.37;;;15.50;99.90;;;;;;6262584;23;20179;-91
2022/05/27 05:19:29;;;;;;;6.60;3.90;;;15.50;99.90;;;;;;6253527;23;20206;-93
2022/05/27 05:22:00;;;;;;;7.43;4.40;;;15.50;99.90;;;;;;6255914;23;20175;-90
2022/05/27 05:24:34;;;;;;;6.07;4.57;;;15.40;99.90;;;;;;6255793;23;20286;-90
2022/05/27 05:27:08;;;;;;;6.23;4.37;;;15.40;99.90;;;;;;6228831;23;20192;-91
2022/05/27 05:29:40;;;;;;;7.50;4.13;;;15.40;99.90;;;;;;6257223;23;20167;-91
2022/05/27 05:32:20;;;;;;;6.37;4.43;;;15.40;99.90;;;;;;6254929;23;20234;-91
2022/05/27 05:34:58;;;;;;;5.93;4.97;;;15.40;99.90;;;;;;6252672;23;20656;-90
2022/05/27 05:37:30;;;;;;;5.07;4.57;;;15.40;99.90;;;;;;6256095;23;20181;-90
2022/05/27 05:40:09;;;;;;;6.43;5.23;;;15.40;99.90;;;;;;6251423;23;20183;-91
2022/05/27 05:42:43;;;;;;;6.40;5.13;;;15.40;99.90;;;;;;6252181;23;20192;-90
2022/05/27 05:45:16;;;;;;;5.90;5.30;;;15.40;99.90;;;;;;6253207;22;20182;-91
2022/05/27 05:47:48;;;;;;;5.43;4.93;;;15.40;99.90;;;;;;6253847;23;20219;-90
2022/05/27 05:50:21;;;;;;;6.10;5.27;;;15.30;99.90;;;;;;6227945;23;20190;-90
2022/05/27 05:52:55;;;;;;;8.97;5.47;;;15.30;99.90;;;;;;6258161;23;20176;-89
2022/05/27 05:58:27;;;;;;;7.37;5.53;;;15.30;99.90;;;;;;6254571;23;20228;-90
2022/05/27 06:00:59;;;;;;;7.93;6.13;;;15.30;99.90;;;;;;6265451;23;20186;-91
2022/05/27 06:03:30;;;;;;;7.73;6.17;;;15.30;99.90;;;;;;6229978;23;20175;-91
2022/05/27 06:06:02;;;;;;;6.50;5.87;;;15.30;99.90;;;;;;6267975;22;20156;-91
2022/05/27 06:08:34;;;;;;;7.97;5.90;;;15.30;99.90;;;;;;6273629;22;20152;-93
2022/05/27 06:11:08;;;;;;;9.60;6.30;;;15.30;99.90;;;;;;6273280;22;20216;-92
2022/05/27 06:13:41;;;;;;;6.90;5.77;;;15.30;99.90;;;;;;6247720;22;20159;-91
2022/05/27 06:16:12;;;;;;;7.87;6.20;;;15.30;99.90;;;;;;6273422;22;20191;-90
2022/05/27 06:18:45;;;;;;;7.73;6.37;;;15.30;99.90;;;;;;6273392;22;20175;-91
2022/05/27 06:21:17;;;;;;;7.37;5.90;;;15.30;99.90;;;;;;6272398;22;20224;-91
2022/05/27 06:23:48;;;;;;;6.20;5.50;;;15.30;99.90;;;;;;6246980;22;20156;-92
2022/05/27 06:26:19;;;;;;;6.50;5.27;;;15.30;99.90;;;;;;6267406;22;20206;-91
2022/05/27 06:34:29;;;;;;;6.10;5.50;;;15.30;99.90;;;;;;6259586;23;20187;-91
2022/05/27 06:37:05;;;;;;;6.70;4.77;;;15.30;99.90;;;;;;6232190;23;20175;-92
2022/05/27 06:39:38;;;;;;;9.80;5.33;;;15.20;99.90;;;;;;6256795;23;20634;-91
2022/05/27 06:42:10;;;;;;;5.90;4.57;;;15.30;99.90;;;;;;6255547;23;20211;-91
2022/05/27 06:45:04;;;;;;;6.60;4.87;;;15.30;99.90;;;;;;6254328;23;20184;-91
2022/05/27 06:47:36;;;;;;;5.47;4.73;;;15.20;99.90;;;;;;6254868;23;20203;-91
2022/05/27 06:50:09;;;;;;;6.70;4.40;;;15.20;99.90;;;;;;6254807;23;20179;-91
2022/05/27 06:52:41;;;;;;;8.40;4.73;;;15.20;99.90;;;;;;6254398;23;20171;-91
2022/05/27 06:55:13;;;;;;;7.50;4.80;;;15.20;99.90;;;;;;6255161;23;20175;-91
2022/05/27 06:57:45;;;;;;;6.03;4.37;;;15.20;99.90;;;;;;6254482;23;20172;-91
2022/05/27 07:00:20;;;;;;;5.80;4.50;;;15.20;99.90;;;;;;6252925;23;20180;-92
2022/05/27 07:02:52;;;;;;;5.57;4.40;;;15.20;99.90;;;;;;6260723;23;20171;-92
2022/05/27 07:05:24;;;;;;;5.13;4.40;;;15.20;99.90;;;;;;6252417;23;20172;-91
2022/05/27 07:07:55;;;;;;;8.67;5.13;;;15.20;99.90;;;;;;6251335;23;20199;-92
2022/05/27 07:10:26;;;;;;;8.53;4.20;;;15.20;99.90;;;;;;6251049;23;20198;-91
2022/05/27 07:13:00;;;;;;;6.03;4.70;;;15.30;99.90;;;;;;6252183;23;20553;-92
2022/05/27 07:15:34;;;;;;;5.23;3.90;;;15.20;99.90;;;;;;6227551;23;20231;-92
2022/05/27 07:18:08;;;;;;;6.00;4.00;;;15.30;99.90;;;;;;6252180;23;20168;-91
2022/05/27 07:20:40;;;;;;;6.23;4.30;;;15.20;99.90;;;;;;6225137;23;20309;-91
2022/05/27 07:23:12;;;;;;;5.40;4.53;;;15.20;99.90;;;;;;6253135;23;20175;-92
2022/05/27 07:25:44;;;;;;;6.10;4.53;;;15.20;99.90;;;;;;6252331;23;20206;-91
2022/05/27 07:28:16;;;;;;;5.70;4.20;;;15.20;99.90;;;;;;6252151;23;20298;-91
2022/05/27 07:30:49;;;;;;;7.13;4.30;;;15.30;99.90;;;;;;6252024;23;20172;-91
2022/05/27 07:33:22;;;;;;;10.73;4.47;;;15.30;99.90;;;;;;6252525;23;20180;-91
2022/05/27 07:35:53;;;;;;;6.43;4.97;;;15.20;99.90;;;;;;6251605;23;20178;-91
2022/05/27 07:38:24;;;;;;;4.93;4.20;;;15.20;99.90;;;;;;6251656;23;20618;-90
2022/05/27 07:40:56;;;;;;;5.90;4.57;;;15.20;99.90;;;;;;6250949;23;20283;-91
2022/05/27 07:43:28;;;;;;;6.37;4.73;;;15.10;99.90;;;;;;6251381;23;20820;-91
2022/05/27 07:46:03;;;;;;;9.53;4.97;;;15.10;99.90;;;;;;6254440;23;20175;-91
2022/05/27 07:48:35;;;;;;;6.40;4.43;;;15.10;99.90;;;;;;6251499;23;20206;-91
2022/05/27 07:51:13;;;;;;;7.37;4.77;;;15.00;99.90;;;;;;6225160;23;20203;-91
2022/05/27 07:53:44;;;;;;;7.17;5.00;;;15.00;99.90;;;;;;6251506;23;20168;-91
2022/05/27 07:56:15;;;;;;;8.10;5.27;;;14.90;99.90;;;;;;6225498;23;20317;-90
2022/05/27 07:58:46;;;;;;;6.70;4.60;;;14.90;99.90;;;;;;6251368;23;20170;-89
2022/05/27 08:01:20;;;;;;;9.27;4.97;;;14.80;99.90;;;;;;6250139;23;20179;-89
2022/05/27 08:03:52;;;;;;;8.27;4.43;;;14.80;99.90;;;;;;6251183;23;20171;-91
2022/05/27 08:06:24;;;;;;;4.30;3.87;;;14.70;99.90;;;;;;6251140;23;20167;-92
2022/05/27 08:08:55;;;;;;;5.70;3.90;;;14.60;99.90;;;;;;6250987;23;20261;-91
2022/05/27 08:11:26;;;;;;;5.47;3.93;;;14.60;99.90;;;;;;6226627;23;20615;-92
2022/05/27 08:14:00;;;;;;;5.63;4.00;;;14.50;99.90;;;;;;6252311;23;20202;-92
2022/05/27 08:16:36;;;;;;;5.93;4.20;;;14.40;99.90;;;;;;6223763;23;20190;-90
2022/05/27 08:19:08;;;;;;;6.67;3.60;;;14.40;99.90;;;;;;6255656;22;20194;-89
2022/05/27 08:21:39;;;;;;;4.87;4.40;;;14.40;99.90;;;;;;6253949;23;20175;-90
2022/05/27 08:24:12;;;;;;;7.93;4.63;;;14.40;99.90;;;;;;6253878;22;20534;-89
2022/05/27 08:26:43;;;;;;;7.87;4.03;;;14.40;99.90;;;;;;6251404;23;20217;-92
2022/05/27 08:29:14;;;;;;;6.57;4.37;;;14.40;99.90;;;;;;6253221;23;20265;-90
2022/05/27 08:31:48;;;;;;;6.17;4.10;;;14.40;99.90;;;;;;6255712;23;20180;-92
2022/05/27 08:39:54;;;;;;;7.30;3.27;;;14.30;99.90;;;;;;6256697;23;20261;-89
2022/05/27 08:42:34;;;;;;;5.83;3.47;;;14.10;99.90;;;;;;6255837;22;20179;-89
2022/05/27 08:45:15;;;;;;;4.77;3.30;;;14.10;99.90;;;;;;6253013;23;20220;-90
2022/05/27 08:47:51;;;;;;;4.00;3.40;;;14.10;99.90;;;;;;6251369;23;20187;-90
2022/05/27 08:50:32;;;;;;;5.67;3.13;;;14.00;99.90;;;;;;6250547;23;20180;-90
2022/05/27 08:53:12;;;;;;;6.47;3.17;;;13.90;99.90;;;;;;6253157;23;20175;-90
2022/05/27 09:01:31;;;;;;;6.47;3.23;;;13.70;99.90;;;;;;6249480;23;20176;-90
2022/05/27 09:04:11;;;;;;;4.97;3.23;;;13.80;99.90;;;;;;6224099;23;20202;-90
2022/05/27 09:06:50;;;;;;;4.10;3.70;;;13.70;99.90;;;;;;6250653;23;20553;-89
2022/05/27 09:09:23;;;;;;;3.37;2.93;;;13.80;99.90;;;;;;6249988;23;20203;-89
2022/05/27 09:12:26;;;;;;;4.23;3.33;;;13.70;99.90;;;;;;6250693;23;20172;-90
2022/05/27 09:15:04;;;;;;;5.80;3.60;;;13.70;99.90;;;;;;6249616;23;20202;-90
2022/05/27 09:17:48;;;;;;;4.67;3.13;;;13.70;99.90;;;;;;6250135;23;20229;-91
2022/05/27 09:20:32;;;;;;;6.00;3.10;;;13.70;99.90;;;;;;6249830;23;20455;-89
2022/05/27 09:23:16;;;;;;;2.93;2.67;;;13.70;99.90;;;;;;6257250;23;20175;-90
2022/05/27 09:25:55;;;;;;;5.33;3.07;;;13.60;99.90;;;;;;6256351;23;20183;-90
2022/05/27 09:28:37;;;;;;;3.80;2.93;;;13.60;99.90;;;;;;6259924;22;20207;-90
2022/05/27 09:31:12;;;;;;;3.50;2.70;;;13.50;99.90;;;;;;6232314;22;20176;-90
2022/05/27 09:33:45;;;;;;;2.93;2.20;;;13.60;99.90;;;;;;6242548;22;20182;-89
2022/05/27 09:36:21;;;;;;;5.00;2.57;;;13.40;99.90;;;;;;6267005;23;20254;-89
2022/05/27 09:38:57;;;;;;;7.67;2.57;;;13.40;99.90;;;;;;6266614;23;20553;-90
2022/05/27 09:41:37;;;;;;;3.83;2.20;;;13.30;99.90;;;;;;6227581;23;20195;-91
2022/05/27 09:44:25;;;;;;;4.60;2.30;;;13.20;99.90;;;;;;6252402;23;20202;-90
2022/05/27 09:46:56;;;;;;;2.53;2.20;;;13.20;99.90;;;;;;6252712;23;20167;-90
2022/05/27 09:49:27;;;;;;;5.17;2.47;;;13.10;99.90;;;;;;6251169;23;20282;-90
2022/05/27 09:52:03;;;;;;;3.03;2.20;;;13.10;99.90;;;;;;6252234;23;20168;-90
2022/05/27 09:54:43;;;;;;;2.60;2.40;;;13.00;99.90;;;;;;6252627;23;20167;-91
2022/05/27 09:57:23;;;;;;;4.57;2.30;;;12.90;99.90;;;;;;6255053;22;20226;-91
2022/05/27 09:59:57;;;;;;;3.43;1.67;;;12.80;99.90;;;;;;6253331;23;20175;-91
2022/05/27 10:02:34;;;;;;;2.93;2.00;;;12.70;99.90;;;;;;6253228;23;20173;-91
2022/05/27 10:05:08;;;;;;;3.63;2.30;;;12.70;99.90;;;;;;6252906;23;20211;-91
2022/05/27 10:07:45;;;;;;;3.03;1.70;;;12.70;99.90;;;;;;6252439;23;20633;-90
2022/05/27 10:10:30;;;;;;;2.50;1.80;;;12.60;99.90;;;;;;6225537;23;20203;-91
2022/05/27 10:13:19;;;;;;;5.07;2.13;;;12.60;99.90;;;;;;6254966;23;20172;-91
2022/05/27 10:15:50;;;;;;;2.27;1.80;;;12.50;99.90;;;;;;6255487;23;20160;-91
2022/05/27 10:18:24;;;;;;;3.10;1.93;;;12.50;99.90;;;;;;6253160;23;20202;-91
2022/05/27 10:21:00;;;;;;;2.93;2.20;;;12.50;99.90;;;;;;6251927;23;20176;-91
2022/05/27 10:23:40;;;;;;;3.53;1.90;;;12.40;99.90;;;;;;6256966;23;20202;-91
2022/05/27 10:26:24;;;;;;;2.87;2.07;;;12.40;99.90;;;;;;6257546;22;20160;-91
2022/05/27 10:29:06;;;;;;;4.00;1.80;;;12.40;99.90;;;;;;6255560;23;20207;-91
2022/05/27 10:31:38;;;;;;;3.40;2.20;;;12.30;99.90;;;;;;6254386;23;20176;-91
2022/05/27 10:34:09;;;;;;;3.00;2.00;;;12.30;99.90;;;;;;6252151;23;20652;-91
2022/05/27 10:36:59;;;;;;;2.10;1.80;;;12.40;99.90;;;;;;6251333;23;20202;-91
2022/05/27 10:39:37;;;;;;;1.97;1.73;;;12.40;99.90;;;;;;6254596;22;20204;-94
2022/05/27 10:42:22;;;;;;;2.37;2.00;;;12.40;99.90;;;;;;6252531;23;20251;-92
2022/05/27 10:45:06;;;;;;;2.77;1.90;;;12.30;99.90;;;;;;6258112;23;20171;-91
2022/05/27 10:47:56;;;;;;;2.67;1.60;;;12.40;99.90;;;;;;6268633;23;20206;-92
2022/05/27 10:50:44;;;;;;;3.17;1.33;;;12.40;99.90;;;;;;6266325;23;20180;-93
2022/05/27 10:53:42;;;;;;;3.63;1.60;;;12.30;99.90;;;;;;6257709;23;20507;-93
2022/05/27 10:56:31;;;;;;;1.93;1.57;;;12.20;99.90;;;;;;6254427;23;20179;-93
2022/05/27 11:02:30;;;;;;;3.20;1.70;;;12.20;99.90;;;;;;6252900;23;20176;-92
2022/05/27 11:05:26;;;;;;;2.07;1.37;;;12.20;99.90;;;;;;6251725;23;20629;-92
2022/05/27 11:08:22;;;;;;;4.10;1.97;;;12.10;99.90;;;;;;6253486;23;20233;-91
2022/05/27 11:11:03;;;;;;;1.63;1.50;;;12.10;99.90;;;;;;6258297;23;20206;-93
2022/05/27 11:17:01;;;;;;;2.53;1.83;;;12.10;99.90;;;;;;6252358;23;20175;-94
2022/05/27 11:19:56;;;;;;;2.43;1.40;;;12.00;99.90;;;;;;6251542;23;20203;-91
2022/05/27 11:22:36;;;;;;;2.50;1.40;;;12.00;99.90;;;;;;6255230;23;20175;-93
2022/05/27 11:25:28;;;;;;;1.80;1.40;;;11.90;99.90;;;;;;6251997;23;20703;-94
2022/05/27 11:28:30;;;;;;;2.63;1.30;;;11.90;99.90;;;;;;6230236;23;20490;-92
2022/05/27 11:31:27;;;;;;;2.67;0.90;;;11.90;99.90;;;;;;6231779;23;20191;-92
2022/05/27 11:34:13;;;;;;;1.83;1.50;;;11.90;99.90;;;;;;6256223;23;20196;-92
2022/05/27 11:37:18;;;;;;;2.80;1.10;;;11.90;99.90;;;;;;6267535;23;20266;-93
2022/05/27 11:40:30;;;;;;;2.10;1.43;;;11.90;99.90;;;;;;6269572;22;20257;-92
2022/05/27 11:43:39;;;;;;;2.00;0.90;;;11.90;99.90;;;;;;6255071;23;20176;-95
2022/05/27 11:46:53;;;;;;;1.23;1.07;;;11.90;99.90;;;;;;6229636;23;20184;-93
2022/05/27 11:49:49;;;;;;;1.20;1.00;;;11.90;99.90;;;;;;6253123;23;20187;-94
2022/05/27 11:52:46;;;;;;;1.30;1.00;;;11.90;99.90;;;;;;6251101;23;20182;-93
2022/05/27 11:55:41;;;;;;;3.10;0.90;;;11.90;99.90;;;;;;6228501;23;20175;-93
2022/05/27 11:58:18;;;;;;;0.70;0.70;;;11.90;99.90;;;;;;6252583;23;20176;-93
2022/05/27 12:00:53;;;;;;;1.50;0.90;;;11.90;99.90;;;;;;6250203;23;20669;-91
2022/05/27 12:03:34;;;;;;;1.33;0.90;;;11.90;99.90;;;;;;6250691;23;20197;-90
2022/05/27 12:06:13;;;;;;;1.00;0.50;;;11.90;99.90;;;;;;6250641;23;20195;-93
2022/05/27 12:08:50;;;;;;;0.80;0.70;;;11.80;99.90;;;;;;6250920;23;20330;-91
2022/05/27 12:11:26;;;;;;;0.87;0.60;;;11.80;99.90;;;;;;6250599;23;20200;-93
2022/05/27 12:14:03;;;;;;;1.30;0.57;;;11.70;99.90;;;;;;6251427;23;20560;-93
2022/05/27 12:16:37;;;;;;;2.00;0.50;;;11.60;99.90;;;;;;6251280;23;20174;-93
2022/05/27 12:19:12;;;;;;;0.50;0.50;;;11.60;99.90;;;;;;6250431;23;20498;-93
2022/05/27 12:21:49;;;;;;;2.47;1.00;;;11.60;99.90;;;;;;6249753;23;20633;-93
2022/05/27 12:24:25;;;;;;;1.93;0.70;;;11.50;99.90;;;;;;6250949;23;20229;-93
2022/05/27 12:27:01;;;;;;;1.70;0.70;;;11.50;99.90;;;;;;6255543;23;20164;-93
2022/05/27 12:29:42;;;;;;;1.43;0.60;;;11.50;99.90;;;;;;6267250;22;20179;-93
2022/05/27 12:32:16;;;;;;;3.73;1.07;;;11.30;99.90;;;;;;6226863;23;20298;-93
2022/05/27 12:34:49;;;;;;;0.93;0.73;;;11.30;99.90;;;;;;6253193;23;20172;-92
2022/05/27 12:37:38;;;;;;;4.47;2.00;;;11.20;99.90;;;;;;6252010;23;20172;-94
2022/05/27 12:40:50;;;;;;;2.60;1.07;;;11.10;99.90;;;;;;6250683;23;20255;-94
2022/05/27 12:43:27;;;;;;;2.30;0.70;;;11.10;99.90;;;;;;6159914;23;20206;-92
2022/05/27 12:46:17;;;;;;;4.57;1.07;;;11.10;99.90;;;;;;6246189;23;20201;-92
2022/05/27 12:48:49;;;;;;;3.33;0.90;;;11.10;99.90;;;;;;6252816;23;20237;-93
2022/05/27 12:52:04;;;;;;;54.60;8.10;;;11.10;99.90;;;;;;6257069;23;20179;-94
2022/05/27 12:55:10;;;;;;;2.40;0.97;;;11.00;99.90;;;;;;6269196;22;20179;-92
2022/05/27 13:01:05;;;;;;;1.70;0.90;;;11.00;99.90;;;;;;6267458;23;20207;-93
2022/05/27 13:04:01;;;;;;;4.07;1.37;;;11.00;99.90;;;;;;6268670;22;20171;-93
2022/05/27 13:06:46;;;;;;;7.67;1.33;;;11.00;99.90;;;;;;6256606;23;20175;-93
2022/05/27 13:09:55;;;;;;;5.53;1.53;;;11.00;99.90;;;;;;6257065;23;20723;-92
2022/05/27 13:13:08;;;;;;;3.23;1.20;;;11.00;99.90;;;;;;6256378;23;20644;-93
2022/05/27 13:15:53;;;;;;;6.10;2.17;;;10.90;99.90;;;;;;6257539;23;20175;-94
2022/05/27 13:18:43;;;;;;;2.47;0.90;;;11.00;99.90;;;;;;6258724;23;20176;-93
2022/05/27 13:21:24;;;;;;;3.97;1.00;;;10.90;99.90;;;;;;6256481;23;20210;-93
2022/05/27 13:24:17;;;;;;;4.40;1.00;;;10.90;99.90;;;;;;6254610;23;20182;-93
2022/05/27 13:27:02;;;;;;;10.13;1.23;;;10.90;99.90;;;;;;6251376;23;20287;-92
2022/05/27 13:29:45;;;;;;;5.67;1.47;;;10.90;99.90;;;;;;6256664;23;20203;-93
2022/05/27 13:32:24;;;;;;;4.03;1.43;;;10.90;99.90;;;;;;6252345;23;20182;-92
2022/05/27 13:35:01;;;;;;;4.00;1.47;;;11.00;99.90;;;;;;6252724;23;20242;-94
2022/05/27 13:37:52;;;;;;;4.40;1.30;;;10.90;99.90;;;;;;6251908;23;20622;-93
2022/05/27 13:43:47;;;;;;;5.77;1.23;;;10.90;99.90;;;;;;6251831;23;20172;-94
2022/05/27 13:46:27;;;;;;;4.47;1.43;;;10.90;99.90;;;;;;6251397;23;20676;-95
2022/05/27 13:49:11;;;;;;;5.20;1.13;;;10.90;99.90;;;;;;6251671;23;20179;-95
2022/05/27 13:51:48;;;;;;;8.63;1.90;;;10.90;99.90;;;;;;6250771;23;20255;-94
2022/05/27 13:54:33;;;;;;;4.83;1.00;;;10.90;99.90;;;;;;6249772;23;20175;-93
2022/05/27 13:57:16;;;;;;;7.70;1.47;;;10.90;99.90;;;;;;6251784;23;20210;-93
2022/05/27 13:59:59;;;;;;;8.00;1.40;;;10.90;99.90;;;;;;6252143;23;20685;-90
2022/05/27 14:02:34;;;;;;;4.43;1.80;;;10.80;99.90;;;;;;6251640;22;20175;-90
2022/05/27 14:05:10;;;;;;;5.43;1.70;;;10.90;99.90;;;;;;6251375;22;20182;-90
2022/05/27 14:07:48;;;;;;;8.97;1.60;;;10.90;99.90;;;;;;6249751;23;20186;-90
2022/05/27 14:10:21;;;;;;;4.50;1.50;;;10.90;99.90;;;;;;6251051;23;20218;-90
2022/05/27 14:12:53;;;;;;;7.77;1.47;;;10.90;99.90;;;;;;6251624;22;20175;-90
2022/05/27 14:15:28;;;;;;;8.17;2.20;;;11.00;99.90;;;;;;6250585;22;20180;-90
2022/05/27 14:18:00;;;;;;;7.63;1.47;;;11.00;99.90;;;;;;6250557;22;20230;-90
2022/05/27 14:22:39;;;;;;;5.93;1.60;;;11.10;99.90;;;;;;6250183;22;20199;-90
2022/05/27 14:23:29;;;;;;;5.33;1.53;;;11.20;99.90;;;;;;6251594;22;20176;-89
2022/05/27 14:26:03;;;;;;;3.27;1.60;;;11.20;99.90;;;;;;6251626;22;20587;-90
2022/05/27 14:28:37;;;;;;;7.03;1.60;;;11.30;99.90;;;;;;6249902;23;20626;-90
2022/05/27 14:31:16;;;;;;;5.60;1.33;;;11.30;99.90;;;;;;6250663;22;20206;-90
2022/05/27 14:33:50;;;;;;;4.27;1.47;;;11.20;99.90;;;;;;6251160;22;20175;-90